Wallingford, CT (06492)

10:59 PM EDT on September 02, 2015 (GMT -0400)
Choate Rosemary Hall | | Change Station
CLOSE
Current Station
Personal Weather Station
Location: Wallingford, CT
Elevation: 158 ft
Nearby Weather Stations

Elev 158 ft 41.46 °N, 72.81 °W | Updated 5 minutes ago

Clear
Clear
73.6 °F
Feels Like 74 °F
N
0.0
Wind Variable Wind from NNW

Today
High -- | Low -- °F
--% Chance of Precip.
Yesterday
High -- | Low -- °F
Precip. -- in
6:18 AM 7:23 PM
Waning Gibbous, 75% visible
Pressure 29.89 in
Visibility 10.0 miles
Clouds Clear
Heat Index 74 °F
Dew Point 66 °F
Humidity 78%
Rainfall 0.00 in
Snow Depth Not available.
UV 0.0 out of 12
Pollen 9.00 out of 12
Air Quality Not available.
Flu Activity Not available.
METAR KMMK 030253Z AUTO 00000KT 10SM CLR 21/18 A2990 RMK AO2 SLP122 T02110178 50003 TSNO $
Pressure 29.89 in
Visibility 10.0 miles
Clouds Clear
Heat Index 74 °F
Dew Point 66 °F
Humidity 78%
Rainfall 0.00 in
Snow Depth Not available.
UV 0.0 out of 12
Pollen 9.00 out of 12
Air Quality Not available.
Flu Activity Not available.
METAR KMMK 030253Z AUTO 00000KT 10SM CLR 21/18 A2990 RMK AO2 SLP122 T02110178 50003 TSNO $

10-Day Weather Forecast

×

Almanac

Astronomy

Sep. 02, 2015 Rise Set
Actual Time
Civil Twilight
Nautical Twilight
Astronomical Twilight
Moon
Length of Visible Light
Length of Day
Tomorrow will be .
, % of the Moon is Illuminated

Today's Extremes

State Highs State Lows

Community

WunderPhotos

Upload Photos

1,851,879 photos uploaded!

WunderBlogs® & News

Nearby

Air Quality

  Air Quality AQ Index Pollutant
Not available.

Snow Depth

Station Depth Elevation

Earthquake Activity

City Distance Mag. Time & Date
Minimum magnitude displayed is 2.5.

Coastal Water Temperatures

Place Temperature

Stations

Nearby Weather Stations

Station Location Temp. Windchill Dew Point Humidity Wind Precip. Elev Updated Type